Time;durP1;ratioP1;P1;durP2;ratioP2;P2;SDS_P1;SDS_P2;PMS_P1;PMS_P2;Temp;Humidity;BMP_temperature;BMP_pressure;BME280_temperature;BME280_humidity;BME280_pressure;Samples;Min_cycle;Max_cycle;Signal;HPM_P1;HPM_P2
2023/12/15 00:00:39;;;;;;;10.90;4.65;;;;;;;;;;4999124;28;20155;-66
2023/12/15 00:03:06;;;;;;;9.02;3.75;;;;;;;;;;4997716;28;20058;-65
2023/12/15 00:05:32;;;;;;;10.60;4.47;;;;;;;;;;4996302;28;20132;-66
2023/12/15 00:08:00;;;;;;;13.02;3.95;;;;;;;;;;4988613;28;20068;-66
2023/12/15 00:10:27;;;;;;;11.85;4.35;;;;;;;;;;4998845;28;20046;-66
2023/12/15 00:12:54;;;;;;;11.82;4.38;;;;;;;;;;4996648;28;20081;-66
2023/12/15 00:15:21;;;;;;;11.75;4.60;;;;;;;;;;5000793;28;20050;-66
2023/12/15 00:17:47;;;;;;;12.50;4.70;;;;;;;;;;4995831;28;20062;-66
2023/12/15 00:20:14;;;;;;;10.75;4.68;;;;;;;;;;5001151;28;20056;-66
2023/12/15 00:22:41;;;;;;;12.95;5.00;;;;;;;;;;5001218;28;20229;-66
2023/12/15 00:25:09;;;;;;;11.55;5.07;;;;;;;;;;4996403;28;20050;-66
2023/12/15 00:27:36;;;;;;;12.80;5.40;;;;;;;;;;4995391;28;20058;-65
2023/12/15 00:30:03;;;;;;;13.90;5.35;;;;;;;;;;5002425;28;20563;-66
2023/12/15 00:32:29;;;;;;;10.70;5.07;;;;;;;;;;4998995;28;20077;-65
2023/12/15 00:34:56;;;;;;;13.13;4.88;;;;;;;;;;4999480;28;20054;-66
2023/12/15 00:37:22;;;;;;;10.77;5.03;;;;;;;;;;4993233;28;20264;-66
2023/12/15 00:39:49;;;;;;;16.35;5.78;;;;;;;;;;4983420;28;20107;-66
2023/12/15 00:42:17;;;;;;;18.63;6.13;;;;;;;;;;4981594;28;20160;-65
2023/12/15 00:44:44;;;;;;;16.02;6.57;;;;;;;;;;4979279;28;20486;-66
2023/12/15 00:47:10;;;;;;;15.05;6.55;;;;;;;;;;4982330;28;20062;-66
2023/12/15 00:49:37;;;;;;;16.75;6.72;;;;;;;;;;4979364;28;20065;-66
2023/12/15 00:52:05;;;;;;;17.45;6.95;;;;;;;;;;4979084;28;20083;-65
2023/12/15 00:54:31;;;;;;;19.30;7.47;;;;;;;;;;4984767;28;20078;-66
2023/12/15 00:56:58;;;;;;;19.85;6.70;;;;;;;;;;4987297;28;20054;-65
2023/12/15 00:59:27;;;;;;;16.85;6.53;;;;;;;;;;4983720;28;20081;-66
2023/12/15 01:01:54;;;;;;;16.60;6.95;;;;;;;;;;4978154;28;20046;-66
2023/12/15 01:04:20;;;;;;;19.30;6.85;;;;;;;;;;4982298;28;20130;-65
2023/12/15 01:06:47;;;;;;;19.35;7.38;;;;;;;;;;4980394;28;20107;-66
2023/12/15 01:09:14;;;;;;;17.50;7.30;;;;;;;;;;4978698;28;20058;-65
2023/12/15 01:11:40;;;;;;;18.13;8.02;;;;;;;;;;4969305;28;20125;-65
2023/12/15 01:14:07;;;;;;;20.02;7.97;;;;;;;;;;4971403;28;20623;-66
2023/12/15 01:16:35;;;;;;;19.08;7.65;;;;;;;;;;4981765;28;20030;-65
2023/12/15 01:19:02;;;;;;;20.92;8.25;;;;;;;;;;4974116;28;20141;-65
2023/12/15 01:21:28;;;;;;;22.33;8.48;;;;;;;;;;4977228;28;20105;-66
2023/12/15 01:23:55;;;;;;;17.85;7.60;;;;;;;;;;4972108;28;20298;-65
2023/12/15 01:26:21;;;;;;;18.70;8.90;;;;;;;;;;4982031;28;20086;-65
2023/12/15 01:28:48;;;;;;;20.67;8.77;;;;;;;;;;4991807;28;20119;-66
2023/12/15 01:31:15;;;;;;;21.05;8.30;;;;;;;;;;4997400;28;20057;-65
2023/12/15 01:33:43;;;;;;;20.95;8.88;;;;;;;;;;4996904;28;20069;-68
2023/12/15 01:36:10;;;;;;;21.77;9.27;;;;;;;;;;4997586;28;20113;-65
2023/12/15 01:38:36;;;;;;;22.35;8.85;;;;;;;;;;4980657;28;20113;-66
2023/12/15 01:41:03;;;;;;;24.50;8.27;;;;;;;;;;4975879;28;20081;-65
2023/12/15 01:43:30;;;;;;;23.92;9.50;;;;;;;;;;4977909;28;20447;-65
2023/12/15 01:45:56;;;;;;;22.83;8.82;;;;;;;;;;4971208;28;20101;-65
2023/12/15 01:48:23;;;;;;;31.95;9.55;;;;;;;;;;4983914;28;20072;-66
2023/12/15 01:50:52;;;;;;;31.00;10.15;;;;;;;;;;4996789;28;20076;-66
2023/12/15 01:53:20;;;;;;;19.52;8.45;;;;;;;;;;4998225;28;20081;-66
2023/12/15 01:55:46;;;;;;;25.20;9.23;;;;;;;;;;4993972;28;20050;-67
2023/12/15 01:58:13;;;;;;;26.27;10.70;;;;;;;;;;4993973;28;20072;-65
2023/12/15 02:00:39;;;;;;;30.00;11.30;;;;;;;;;;5012961;28;20141;-66
2023/12/15 02:03:06;;;;;;;28.00;11.40;;;;;;;;;;4996175;28;20406;-66
2023/12/15 02:05:33;;;;;;;25.38;11.40;;;;;;;;;;4999556;28;20054;-65
2023/12/15 02:08:01;;;;;;;26.35;10.80;;;;;;;;;;5005868;28;20053;-65
2023/12/15 02:10:28;;;;;;;30.02;10.52;;;;;;;;;;5000882;28;20129;-66
2023/12/15 02:12:54;;;;;;;18.95;9.23;;;;;;;;;;4998536;28;20061;-66
2023/12/15 02:15:21;;;;;;;25.67;9.35;;;;;;;;;;5002831;28;20049;-66
2023/12/15 02:17:48;;;;;;;32.10;11.73;;;;;;;;;;4990954;28;20133;-67
2023/12/15 02:20:14;;;;;;;26.08;11.35;;;;;;;;;;4999829;28;20046;-66
2023/12/15 02:22:42;;;;;;;23.45;10.13;;;;;;;;;;4998920;28;20137;-66
2023/12/15 02:25:09;;;;;;;24.15;10.68;;;;;;;;;;5000058;28;20112;-65
2023/12/15 02:27:36;;;;;;;34.53;11.13;;;;;;;;;;4993964;28;20066;-65
2023/12/15 02:30:02;;;;;;;29.40;10.70;;;;;;;;;;5001689;28;20123;-65
2023/12/15 02:32:29;;;;;;;24.70;10.10;;;;;;;;;;4999195;28;20053;-66
2023/12/15 02:34:56;;;;;;;25.58;9.88;;;;;;;;;;5000279;28;20078;-65
2023/12/15 02:37:23;;;;;;;30.92;10.02;;;;;;;;;;4998797;28;20101;-67
2023/12/15 02:39:51;;;;;;;27.25;10.45;;;;;;;;;;4995590;28;20061;-66
2023/12/15 02:42:18;;;;;;;24.38;10.73;;;;;;;;;;5004000;28;20077;-65
2023/12/15 02:44:45;;;;;;;32.90;10.85;;;;;;;;;;5001162;28;20093;-66
2023/12/15 02:47:11;;;;;;;25.52;9.73;;;;;;;;;;4997085;28;20069;-66
2023/12/15 02:49:39;;;;;;;31.85;11.20;;;;;;;;;;4998250;28;20046;-66
2023/12/15 02:52:06;;;;;;;29.85;10.68;;;;;;;;;;4998426;28;20089;-65
2023/12/15 02:54:33;;;;;;;28.95;11.25;;;;;;;;;;4998434;28;20064;-65
2023/12/15 02:57:01;;;;;;;21.90;8.90;;;;;;;;;;5000841;28;20058;-67
2023/12/15 02:59:28;;;;;;;28.88;11.02;;;;;;;;;;4995515;28;20081;-65
2023/12/15 03:01:54;;;;;;;25.83;9.50;;;;;;;;;;4968929;28;20110;-66
2023/12/15 03:04:21;;;;;;;28.88;9.93;;;;;;;;;;4997751;28;20052;-66
2023/12/15 03:06:47;;;;;;;32.60;10.48;;;;;;;;;;4998843;28;20050;-66
2023/12/15 03:09:14;;;;;;;30.08;10.82;;;;;;;;;;5003809;28;20112;-66
2023/12/15 03:11:41;;;;;;;27.35;10.13;;;;;;;;;;5003090;28;20338;-66
2023/12/15 03:14:09;;;;;;;28.33;10.32;;;;;;;;;;5000734;28;20057;-66
2023/12/15 03:16:35;;;;;;;38.85;10.18;;;;;;;;;;5002155;28;20543;-65
2023/12/15 03:19:02;;;;;;;22.90;9.95;;;;;;;;;;4998808;28;20069;-66
2023/12/15 03:21:29;;;;;;;29.33;11.48;;;;;;;;;;4986097;28;20065;-67
2023/12/15 03:23:55;;;;;;;28.75;10.75;;;;;;;;;;4978857;28;20058;-66
2023/12/15 03:26:22;;;;;;;31.20;12.30;;;;;;;;;;4982447;28;20110;-66
2023/12/15 03:28:49;;;;;;;31.33;11.45;;;;;;;;;;4979101;28;20058;-66
2023/12/15 03:31:17;;;;;;;31.35;10.93;;;;;;;;;;4981615;28;21416;-66
2023/12/15 03:33:43;;;;;;;31.85;10.60;;;;;;;;;;4984023;28;21188;-66
2023/12/15 03:36:10;;;;;;;30.10;11.18;;;;;;;;;;4979457;28;20054;-67
2023/12/15 03:38:37;;;;;;;31.83;10.27;;;;;;;;;;4988888;28;20061;-66
2023/12/15 03:41:04;;;;;;;38.55;13.38;;;;;;;;;;4986256;28;20059;-66
2023/12/15 03:43:31;;;;;;;49.97;18.20;;;;;;;;;;4996144;28;20054;-67
2023/12/15 03:45:58;;;;;;;32.75;12.68;;;;;;;;;;4999752;28;20125;-66
2023/12/15 03:48:26;;;;;;;35.63;13.57;;;;;;;;;;4999657;28;20058;-66
2023/12/15 03:50:52;;;;;;;29.85;10.52;;;;;;;;;;5001007;28;20135;-67
2023/12/15 03:53:19;;;;;;;31.13;12.48;;;;;;;;;;4997377;28;20066;-67
2023/12/15 03:55:46;;;;;;;32.20;11.40;;;;;;;;;;5005097;28;20247;-66
2023/12/15 03:58:12;;;;;;;37.22;11.43;;;;;;;;;;5010231;28;20153;-67
2023/12/15 04:00:39;;;;;;;24.85;9.63;;;;;;;;;;4994937;28;20081;-66
2023/12/15 04:03:06;;;;;;;31.92;11.65;;;;;;;;;;4998872;28;20133;-66
2023/12/15 04:05:34;;;;;;;26.75;11.50;;;;;;;;;;4998210;28;20123;-67
2023/12/15 04:08:00;;;;;;;36.95;13.82;;;;;;;;;;5000526;28;20057;-67
2023/12/15 04:10:27;;;;;;;34.35;12.68;;;;;;;;;;4997622;28;20084;-66
2023/12/15 04:12:53;;;;;;;28.63;10.55;;;;;;;;;;5000912;28;20089;-66
2023/12/15 04:15:20;;;;;;;32.60;11.30;;;;;;;;;;4996764;28;20054;-65
2023/12/15 04:17:47;;;;;;;33.20;11.85;;;;;;;;;;4997626;28;20168;-66
2023/12/15 04:20:14;;;;;;;39.90;11.98;;;;;;;;;;5001384;28;20050;-66
2023/12/15 04:22:42;;;;;;;30.92;10.70;;;;;;;;;;5008458;28;20049;-67
2023/12/15 04:25:09;;;;;;;24.60;10.15;;;;;;;;;;4996275;28;20050;-66
2023/12/15 04:27:35;;;;;;;31.48;11.48;;;;;;;;;;4984027;28;20077;-66
2023/12/15 04:30:04;;;;;;;34.92;10.93;;;;;;;;;;4998851;28;20085;-68
2023/12/15 04:32:31;;;;;;;25.63;11.38;;;;;;;;;;4995682;28;20053;-67
2023/12/15 04:34:58;;;;;;;29.45;11.70;;;;;;;;;;4999225;28;20057;-66
2023/12/15 04:37:24;;;;;;;29.83;11.65;;;;;;;;;;4998639;28;20061;-66
2023/12/15 04:39:52;;;;;;;29.48;11.45;;;;;;;;;;4992042;28;20141;-66
2023/12/15 04:42:19;;;;;;;26.77;10.60;;;;;;;;;;4995275;28;20136;-66
2023/12/15 04:44:46;;;;;;;23.85;9.95;;;;;;;;;;4996362;28;20082;-67
2023/12/15 04:47:12;;;;;;;31.70;11.07;;;;;;;;;;4996968;28;20054;-67
2023/12/15 04:49:39;;;;;;;25.23;9.82;;;;;;;;;;4993162;28;20133;-67
2023/12/15 04:52:06;;;;;;;29.38;11.35;;;;;;;;;;4993013;28;20065;-66
2023/12/15 04:54:33;;;;;;;28.58;11.35;;;;;;;;;;4998901;28;20149;-66
2023/12/15 04:57:01;;;;;;;27.85;12.27;;;;;;;;;;5017481;28;20050;-66
2023/12/15 04:59:28;;;;;;;30.90;11.90;;;;;;;;;;4992230;28;20061;-67
2023/12/15 05:01:55;;;;;;;26.10;10.70;;;;;;;;;;4999036;28;20062;-66
2023/12/15 05:04:21;;;;;;;33.15;12.20;;;;;;;;;;4998610;28;20168;-66
2023/12/15 05:06:49;;;;;;;26.50;10.23;;;;;;;;;;4993918;28;20056;-66
2023/12/15 05:09:16;;;;;;;27.27;9.85;;;;;;;;;;4990743;28;20073;-66
2023/12/15 05:11:42;;;;;;;28.40;10.38;;;;;;;;;;4979965;28;20070;-66
2023/12/15 05:14:11;;;;;;;29.23;10.57;;;;;;;;;;4997061;28;20086;-66
2023/12/15 05:16:37;;;;;;;23.48;10.07;;;;;;;;;;4997068;28;20081;-66
2023/12/15 05:19:04;;;;;;;30.60;10.00;;;;;;;;;;4995439;28;20119;-67
2023/12/15 05:21:31;;;;;;;25.92;11.30;;;;;;;;;;4988404;28;20057;-66
2023/12/15 05:23:58;;;;;;;32.05;11.32;;;;;;;;;;4998004;28;20077;-65
2023/12/15 05:26:25;;;;;;;26.90;10.52;;;;;;;;;;4999814;28;20053;-66
2023/12/15 05:28:52;;;;;;;26.67;10.90;;;;;;;;;;4996692;28;20069;-66
2023/12/15 05:31:20;;;;;;;27.35;10.95;;;;;;;;;;4992102;28;20062;-67
2023/12/15 05:33:47;;;;;;;21.25;9.57;;;;;;;;;;4996337;28;20163;-66
2023/12/15 05:36:18;;;;;;;28.65;10.88;;;;;;;;;;4997124;28;20081;-67
2023/12/15 05:38:45;;;;;;;27.30;11.10;;;;;;;;;;4998810;28;20064;-66
2023/12/15 05:41:12;;;;;;;29.17;10.95;;;;;;;;;;4992388;28;20054;-66
2023/12/15 05:43:37;;;;;;;29.58;10.40;;;;;;;;;;4994869;28;20070;-67
2023/12/15 05:46:04;;;;;;;28.70;11.00;;;;;;;;;;4990738;28;20139;-66
2023/12/15 05:48:32;;;;;;;28.48;10.52;;;;;;;;;;4994083;28;20046;-66
2023/12/15 05:50:59;;;;;;;29.20;10.65;;;;;;;;;;4996529;28;20061;-66
2023/12/15 05:53:25;;;;;;;27.92;10.93;;;;;;;;;;4995710;28;20145;-67
2023/12/15 05:55:53;;;;;;;24.83;10.75;;;;;;;;;;4989696;28;20050;-66
2023/12/15 05:58:20;;;;;;;26.48;9.93;;;;;;;;;;4992761;28;20103;-66
2023/12/15 06:00:48;;;;;;;22.15;9.38;;;;;;;;;;4989056;28;20064;-66
2023/12/15 06:03:17;;;;;;;29.80;10.23;;;;;;;;;;4971434;28;20082;-66
2023/12/15 06:05:45;;;;;;;25.27;9.27;;;;;;;;;;4961325;28;20059;-67
2023/12/15 06:08:13;;;;;;;26.58;10.52;;;;;;;;;;4970149;28;20061;-66
2023/12/15 06:10:41;;;;;;;21.63;9.70;;;;;;;;;;4966332;28;20063;-66
2023/12/15 06:13:07;;;;;;;25.73;10.18;;;;;;;;;;4991104;28;20054;-66
2023/12/15 06:15:34;;;;;;;27.23;10.55;;;;;;;;;;4983013;28;20157;-67
2023/12/15 06:18:01;;;;;;;51.50;20.20;;;;;;;;;;4994906;28;20049;-67
2023/12/15 06:20:27;;;;;;;32.03;13.25;;;;;;;;;;5001338;28;20064;-66
2023/12/15 06:22:56;;;;;;;27.90;11.32;;;;;;;;;;4981173;28;20066;-67
2023/12/15 06:25:23;;;;;;;28.85;10.38;;;;;;;;;;4982299;28;20137;-67
2023/12/15 06:27:50;;;;;;;21.33;9.52;;;;;;;;;;4984025;28;20079;-66
2023/12/15 06:30:17;;;;;;;25.48;9.90;;;;;;;;;;4985404;28;20159;-66
2023/12/15 06:32:43;;;;;;;29.52;10.02;;;;;;;;;;4989802;28;20041;-66
2023/12/15 06:35:10;;;;;;;27.75;10.50;;;;;;;;;;4993869;28;20061;-66
2023/12/15 06:37:36;;;;;;;27.00;10.82;;;;;;;;;;4985766;28;20074;-66
2023/12/15 06:40:06;;;;;;;27.67;10.52;;;;;;;;;;4998213;28;20140;-67
2023/12/15 06:42:32;;;;;;;25.92;10.30;;;;;;;;;;4991835;28;20060;-66
2023/12/15 06:45:07;;;;;;;29.75;9.98;;;;;;;;;;4996228;28;20117;-66
2023/12/15 06:47:33;;;;;;;25.83;10.20;;;;;;;;;;4987058;28;20050;-66
2023/12/15 06:50:00;;;;;;;21.67;9.52;;;;;;;;;;4995069;28;20065;-67
2023/12/15 06:52:27;;;;;;;27.73;10.13;;;;;;;;;;4995281;28;20132;-66
2023/12/15 06:54:53;;;;;;;21.95;9.68;;;;;;;;;;4994454;28;20136;-66
2023/12/15 06:57:21;;;;;;;28.13;10.98;;;;;;;;;;4993252;28;20106;-66
2023/12/15 06:59:48;;;;;;;29.25;10.40;;;;;;;;;;4989292;28;20065;-66
2023/12/15 07:02:15;;;;;;;29.70;11.55;;;;;;;;;;4977682;28;20058;-65
2023/12/15 07:04:41;;;;;;;39.92;14.70;;;;;;;;;;4986643;28;20137;-66
2023/12/15 07:07:08;;;;;;;31.27;12.52;;;;;;;;;;4973064;28;20070;-65
2023/12/15 07:09:34;;;;;;;38.17;12.18;;;;;;;;;;4977929;28;20101;-65
2023/12/15 07:12:02;;;;;;;22.58;8.75;;;;;;;;;;4975977;28;20128;-66
2023/12/15 07:14:30;;;;;;;19.65;9.38;;;;;;;;;;4993711;28;20058;-67
2023/12/15 07:16:57;;;;;;;21.70;9.95;;;;;;;;;;4978942;28;20117;-66
2023/12/15 07:19:24;;;;;;;26.17;9.95;;;;;;;;;;4976076;28;20054;-66
2023/12/15 07:21:51;;;;;;;21.17;9.70;;;;;;;;;;4990398;28;20086;-66
2023/12/15 07:24:17;;;;;;;27.73;9.32;;;;;;;;;;4971778;28;20565;-65
2023/12/15 07:26:44;;;;;;;23.77;9.77;;;;;;;;;;4981857;28;20070;-66
2023/12/15 07:29:10;;;;;;;21.95;8.93;;;;;;;;;;4981547;28;20066;-66
2023/12/15 07:31:38;;;;;;;26.88;10.45;;;;;;;;;;4972476;28;20077;-65
2023/12/15 07:34:06;;;;;;;26.95;9.13;;;;;;;;;;5010812;28;20077;-67
2023/12/15 07:36:32;;;;;;;21.23;9.63;;;;;;;;;;5002627;28;20173;-66
2023/12/15 07:38:59;;;;;;;24.33;9.20;;;;;;;;;;4997089;28;20066;-66
2023/12/15 07:41:26;;;;;;;19.40;8.65;;;;;;;;;;4990092;28;20042;-66
2023/12/15 07:43:53;;;;;;;27.52;9.60;;;;;;;;;;4976317;28;20050;-66
2023/12/15 07:46:20;;;;;;;28.80;9.55;;;;;;;;;;4979929;28;20418;-65
2023/12/15 07:48:48;;;;;;;26.75;9.43;;;;;;;;;;4980744;28;20073;-66
2023/12/15 07:51:19;;;;;;;23.95;9.85;;;;;;;;;;4978909;28;20066;-65
2023/12/15 07:53:47;;;;;;;29.25;9.32;;;;;;;;;;4997598;28;21599;-66
2023/12/15 07:56:20;;;;;;;25.90;9.93;;;;;;;;;;4996859;28;20123;-66
2023/12/15 07:58:49;;;;;;;22.65;8.95;;;;;;;;;;4999106;28;20176;-65
2023/12/15 08:01:16;;;;;;;24.75;9.60;;;;;;;;;;4988558;28;20153;-67
2023/12/15 08:03:42;;;;;;;27.92;10.45;;;;;;;;;;4994665;28;20058;-66
2023/12/15 08:06:12;;;;;;;28.55;9.77;;;;;;;;;;4998880;28;20042;-65
2023/12/15 08:08:39;;;;;;;29.80;10.85;;;;;;;;;;4999697;28;20065;-67
2023/12/15 08:11:06;;;;;;;20.33;8.45;;;;;;;;;;4988208;28;20052;-66
2023/12/15 08:13:35;;;;;;;22.65;9.13;;;;;;;;;;4986813;28;20050;-67
2023/12/15 08:16:03;;;;;;;21.65;8.20;;;;;;;;;;4995806;28;20104;-66
2023/12/15 08:18:29;;;;;;;27.15;9.30;;;;;;;;;;4998536;28;20061;-64
2023/12/15 08:20:56;;;;;;;23.63;8.63;;;;;;;;;;4996338;28;20580;-66
2023/12/15 08:23:24;;;;;;;20.58;7.65;;;;;;;;;;4996677;28;20133;-65
2023/12/15 08:25:51;;;;;;;23.33;7.55;;;;;;;;;;4994507;28;20068;-65
2023/12/15 08:28:19;;;;;;;24.40;8.43;;;;;;;;;;4996497;28;20057;-66
2023/12/15 08:30:46;;;;;;;21.73;8.05;;;;;;;;;;4996514;28;20077;-65
2023/12/15 08:33:13;;;;;;;14.95;6.88;;;;;;;;;;4986499;28;20061;-66
2023/12/15 08:35:40;;;;;;;23.27;7.88;;;;;;;;;;4989648;28;20068;-66
2023/12/15 08:38:06;;;;;;;25.33;8.20;;;;;;;;;;4996002;28;20127;-66
2023/12/15 08:40:35;;;;;;;22.98;8.63;;;;;;;;;;5000646;28;20042;-65
2023/12/15 08:43:01;;;;;;;23.83;7.78;;;;;;;;;;4990096;28;20161;-64
2023/12/15 08:45:28;;;;;;;21.88;8.52;;;;;;;;;;4996759;28;20168;-65
2023/12/15 08:47:55;;;;;;;21.35;7.22;;;;;;;;;;4995415;28;20058;-65
2023/12/15 08:50:21;;;;;;;24.33;7.93;;;;;;;;;;4994529;28;20108;-65
2023/12/15 08:52:48;;;;;;;14.27;6.85;;;;;;;;;;4996035;28;20064;-65
2023/12/15 08:55:15;;;;;;;18.90;6.90;;;;;;;;;;4987745;28;20061;-65
2023/12/15 08:57:43;;;;;;;21.20;7.30;;;;;;;;;;4992273;28;20065;-66
2023/12/15 09:00:10;;;;;;;18.70;7.03;;;;;;;;;;4995508;28;20081;-65
2023/12/15 09:02:37;;;;;;;22.77;7.07;;;;;;;;;;4987624;28;20062;-65
2023/12/15 09:05:06;;;;;;;16.73;6.45;;;;;;;;;;4997006;28;20053;-65
2023/12/15 09:07:34;;;;;;;19.17;6.38;;;;;;;;;;4989742;28;20149;-65
2023/12/15 09:10:04;;;;;;;15.77;6.38;;;;;;;;;;4996167;28;20149;-64
2023/12/15 09:12:31;;;;;;;20.55;6.90;;;;;;;;;;4995016;28;20125;-66
2023/12/15 09:14:59;;;;;;;21.20;7.35;;;;;;;;;;4997355;28;20121;-65
2023/12/15 09:17:25;;;;;;;19.15;6.40;;;;;;;;;;4995509;28;20161;-65
2023/12/15 09:19:53;;;;;;;16.00;6.38;;;;;;;;;;4994024;28;20057;-65
2023/12/15 09:22:20;;;;;;;13.93;5.68;;;;;;;;;;4987190;28;20062;-64
2023/12/15 09:24:46;;;;;;;19.42;6.60;;;;;;;;;;4994594;28;20050;-65
2023/12/15 09:27:13;;;;;;;13.07;4.78;;;;;;;;;;4997342;28;20081;-64
2023/12/15 09:29:40;;;;;;;14.90;5.55;;;;;;;;;;4995325;28;20336;-64
2023/12/15 09:32:08;;;;;;;16.95;5.78;;;;;;;;;;4984493;28;20154;-65
2023/12/15 09:34:35;;;;;;;18.65;6.88;;;;;;;;;;5002297;28;20050;-66
2023/12/15 09:37:02;;;;;;;17.17;6.38;;;;;;;;;;4994664;28;20050;-64
2023/12/15 09:39:29;;;;;;;20.23;6.55;;;;;;;;;;4995330;28;20065;-66
2023/12/15 09:41:56;;;;;;;17.50;6.05;;;;;;;;;;4986666;28;20053;-66
2023/12/15 09:44:22;;;;;;;20.08;6.18;;;;;;;;;;4994811;28;20057;-65
2023/12/15 09:46:49;;;;;;;25.27;7.55;;;;;;;;;;4994753;28;20069;-65
2023/12/15 09:49:20;;;;;;;22.55;8.25;;;;;;;;;;4996643;28;20126;-66
2023/12/15 09:51:49;;;;;;;22.20;7.40;;;;;;;;;;4990196;28;20054;-65
2023/12/15 09:54:16;;;;;;;16.73;6.10;;;;;;;;;;4995098;28;20149;-65
2023/12/15 09:56:43;;;;;;;15.55;6.25;;;;;;;;;;4995804;28;20058;-65
2023/12/15 09:59:10;;;;;;;13.10;5.75;;;;;;;;;;4995564;28;20081;-65
2023/12/15 10:01:37;;;;;;;17.73;5.82;;;;;;;;;;4977969;28;20122;-65
2023/12/15 10:04:08;;;;;;;26.85;6.53;;;;;;;;;;5000100;28;20050;-65
2023/12/15 10:06:37;;;;;;;20.85;6.13;;;;;;;;;;5000194;28;20050;-65
2023/12/15 10:09:09;;;;;;;22.75;6.70;;;;;;;;;;4997801;28;20077;-65
2023/12/15 10:11:37;;;;;;;24.98;7.35;;;;;;;;;;4988101;28;20073;-64
2023/12/15 10:14:07;;;;;;;19.75;6.68;;;;;;;;;;4997039;28;20064;-65
2023/12/15 10:16:34;;;;;;;20.08;6.45;;;;;;;;;;4995179;28;20046;-65
2023/12/15 10:19:03;;;;;;;18.40;6.20;;;;;;;;;;4998655;28;20046;-65
2023/12/15 10:21:31;;;;;;;14.75;5.57;;;;;;;;;;4988612;28;20053;-66
2023/12/15 10:23:59;;;;;;;20.02;5.10;;;;;;;;;;4994950;28;20173;-65
2023/12/15 10:26:28;;;;;;;17.83;5.47;;;;;;;;;;4995617;28;20153;-65
2023/12/15 10:28:56;;;;;;;23.48;5.90;;;;;;;;;;4997125;28;20065;-65
2023/12/15 10:31:27;;;;;;;19.88;5.93;;;;;;;;;;4976701;28;20061;-65
2023/12/15 10:33:54;;;;;;;19.25;6.07;;;;;;;;;;4995074;28;20061;-64
2023/12/15 10:36:21;;;;;;;16.83;5.72;;;;;;;;;;5001045;28;20112;-66
2023/12/15 10:38:48;;;;;;;14.85;5.97;;;;;;;;;;5002406;28;20069;-66
2023/12/15 10:41:16;;;;;;;18.17;5.55;;;;;;;;;;4998368;28;20141;-65
2023/12/15 10:43:44;;;;;;;18.02;6.53;;;;;;;;;;4995218;28;20085;-65
2023/12/15 10:46:15;;;;;;;22.60;6.30;;;;;;;;;;4997778;28;20141;-65
2023/12/15 10:48:43;;;;;;;12.75;5.35;;;;;;;;;;5000807;28;20049;-66
2023/12/15 10:51:10;;;;;;;22.05;5.90;;;;;;;;;;4983911;28;20061;-66
2023/12/15 10:53:39;;;;;;;18.85;5.53;;;;;;;;;;4998048;28;20069;-65
2023/12/15 10:56:09;;;;;;;12.60;5.28;;;;;;;;;;5003294;28;20083;-65
2023/12/15 10:58:37;;;;;;;14.88;4.93;;;;;;;;;;5000247;28;20053;-65
2023/12/15 11:01:09;;;;;;;18.88;4.90;;;;;;;;;;4997126;28;20069;-64
2023/12/15 11:03:38;;;;;;;16.02;5.18;;;;;;;;;;4994171;28;20046;-65
2023/12/15 11:06:05;;;;;;;16.88;5.53;;;;;;;;;;4999186;28;20057;-66
2023/12/15 11:08:33;;;;;;;20.98;5.70;;;;;;;;;;5001173;28;20069;-66
2023/12/15 11:11:00;;;;;;;18.95;4.90;;;;;;;;;;4995943;28;20058;-65
2023/12/15 11:14:01;;;;;;;19.73;5.03;;;;;;;;;;4986922;28;20075;-65
2023/12/15 11:16:29;;;;;;;13.32;5.45;;;;;;;;;;4996908;28;20054;-65
2023/12/15 11:18:56;;;;;;;20.40;6.18;;;;;;;;;;4999732;28;20046;-65
2023/12/15 11:21:23;;;;;;;14.13;4.65;;;;;;;;;;4991444;28;20054;-65
2023/12/15 11:23:57;;;;;;;14.07;4.68;;;;;;;;;;4989923;28;20075;-66
2023/12/15 11:26:28;;;;;;;14.23;4.90;;;;;;;;;;4993370;28;20085;-64
2023/12/15 11:29:03;;;;;;;16.17;5.28;;;;;;;;;;4985384;28;20050;-66
2023/12/15 11:31:33;;;;;;;14.73;4.05;;;;;;;;;;4955893;28;20060;-66
2023/12/15 11:34:00;;;;;;;19.42;5.10;;;;;;;;;;4986113;28;20119;-65
2023/12/15 11:36:30;;;;;;;15.40;4.97;;;;;;;;;;5003616;28;20049;-67
2023/12/15 11:38:59;;;;;;;13.90;4.65;;;;;;;;;;4997961;28;20068;-66
2023/12/15 11:41:29;;;;;;;16.08;4.80;;;;;;;;;;4965059;28;20061;-69
2023/12/15 11:44:00;;;;;;;14.50;4.50;;;;;;;;;;4997426;28;20089;-68
2023/12/15 11:46:27;;;;;;;18.50;4.88;;;;;;;;;;4998004;28;20140;-67
2023/12/15 11:48:54;;;;;;;15.35;4.55;;;;;;;;;;4998584;28;20163;-67
2023/12/15 11:51:25;;;;;;;13.25;4.72;;;;;;;;;;4988982;28;20085;-69
2023/12/15 11:53:51;;;;;;;15.05;4.30;;;;;;;;;;4993660;28;20140;-66
2023/12/15 11:56:18;;;;;;;11.40;4.05;;;;;;;;;;4996418;28;20054;-67
2023/12/15 11:58:46;;;;;;;18.00;4.63;;;;;;;;;;4999862;28;20076;-68
2023/12/15 12:01:15;;;;;;;12.00;4.47;;;;;;;;;;4989729;28;21409;-68
2023/12/15 12:03:43;;;;;;;;;;;;;;;;;;5006892;28;20062;-67
2023/12/15 12:06:10;;;;;;;22.15;6.82;;;;;;;;;;4996662;28;19926;-68
2023/12/15 12:08:37;;;;;;;22.40;5.05;;;;;;;;;;4998085;28;20057;-67
2023/12/15 12:11:04;;;;;;;19.50;4.45;;;;;;;;;;4994411;28;20169;-67
2023/12/15 12:13:33;;;;;;;11.35;3.47;;;;;;;;;;4980509;28;20144;-68
2023/12/15 12:16:00;;;;;;;15.65;3.72;;;;;;;;;;4996650;28;20046;-68
2023/12/15 12:18:29;;;;;;;15.52;3.30;;;;;;;;;;4997162;28;20065;-67
2023/12/15 12:20:57;;;;;;;17.15;3.85;;;;;;;;;;5001241;28;20045;-67
2023/12/15 12:23:24;;;;;;;11.13;3.50;;;;;;;;;;4991451;28;20085;-67
2023/12/15 12:25:52;;;;;;;12.57;4.18;;;;;;;;;;4993237;28;20069;-66
2023/12/15 12:28:20;;;;;;;12.23;3.83;;;;;;;;;;5000645;28;20108;-68
2023/12/15 12:30:47;;;;;;;9.95;2.80;;;;;;;;;;5001393;28;20492;-67
2023/12/15 12:33:14;;;;;;;17.88;3.45;;;;;;;;;;4991592;28;20111;-66
2023/12/15 12:35:42;;;;;;;17.67;3.40;;;;;;;;;;4990830;28;20155;-67
2023/12/15 12:38:09;;;;;;;19.77;3.40;;;;;;;;;;5007887;28;20129;-66
2023/12/15 12:40:36;;;;;;;17.70;3.17;;;;;;;;;;5009125;28;20065;-64
2023/12/15 12:43:03;;;;;;;11.70;2.78;;;;;;;;;;4992098;28;20085;-65
2023/12/15 12:45:31;;;;;;;15.15;3.15;;;;;;;;;;4997218;28;20346;-67
2023/12/15 12:47:58;;;;;;;19.65;3.35;;;;;;;;;;4998445;28;20052;-66
2023/12/15 12:50:25;;;;;;;11.48;2.95;;;;;;;;;;5001945;28;20049;-66
2023/12/15 12:52:53;;;;;;;11.70;2.75;;;;;;;;;;4997060;28;20050;-65
2023/12/15 12:55:19;;;;;;;15.80;3.10;;;;;;;;;;5000547;28;20061;-65
2023/12/15 12:57:48;;;;;;;14.13;3.00;;;;;;;;;;4997297;28;20058;-65
2023/12/15 13:00:16;;;;;;;15.63;2.65;;;;;;;;;;5000857;28;20056;-65
2023/12/15 13:02:43;;;;;;;9.50;2.67;;;;;;;;;;4994787;28;20054;-64
2023/12/15 13:05:15;;;;;;;12.18;3.28;;;;;;;;;;4998446;28;20115;-68
2023/12/15 13:07:42;;;;;;;21.80;5.55;;;;;;;;;;4988937;28;20069;-65
2023/12/15 13:10:14;;;;;;;27.05;6.03;;;;;;;;;;4998450;28;20058;-66
2023/12/15 13:12:42;;;;;;;9.38;2.65;;;;;;;;;;4993438;28;20056;-65
2023/12/15 13:15:11;;;;;;;7.60;2.40;;;;;;;;;;4997268;28;20166;-65
2023/12/15 13:17:37;;;;;;;20.15;2.63;;;;;;;;;;4992362;28;20061;-67
2023/12/15 13:20:09;;;;;;;7.82;2.15;;;;;;;;;;5008759;28;20057;-65
2023/12/15 13:22:36;;;;;;;8.25;2.50;;;;;;;;;;4981235;28;20061;-66
2023/12/15 13:25:04;;;;;;;12.52;2.42;;;;;;;;;;4979764;28;20902;-65
2023/12/15 13:27:32;;;;;;;9.90;1.93;;;;;;;;;;4972075;28;20145;-65
2023/12/15 13:29:59;;;;;;;6.63;2.00;;;;;;;;;;4976981;28;20050;-65
2023/12/15 13:32:26;;;;;;;12.02;2.25;;;;;;;;;;4980706;28;20061;-65
2023/12/15 13:34:53;;;;;;;12.30;2.47;;;;;;;;;;5006338;28;20083;-67
2023/12/15 13:37:20;;;;;;;20.65;2.05;;;;;;;;;;4971208;28;20053;-65
2023/12/15 13:39:47;;;;;;;9.75;2.25;;;;;;;;;;4989400;28;20050;-67
2023/12/15 13:42:14;;;;;;;12.02;1.70;;;;;;;;;;5001329;28;20060;-64
2023/12/15 13:44:42;;;;;;;14.50;2.00;;;;;;;;;;4997652;28;20050;-65
2023/12/15 13:47:09;;;;;;;9.55;2.00;;;;;;;;;;4993965;28;20065;-65
2023/12/15 13:49:36;;;;;;;12.32;2.17;;;;;;;;;;4988613;28;20081;-65
2023/12/15 13:52:02;;;;;;;11.70;2.13;;;;;;;;;;4997481;28;20078;-64
2023/12/15 13:54:29;;;;;;;9.13;2.63;;;;;;;;;;5001825;28;20065;-64
2023/12/15 13:57:00;;;;;;;14.95;2.13;;;;;;;;;;4996908;28;20041;-65
2023/12/15 13:59:27;;;;;;;15.98;2.00;;;;;;;;;;4994660;28;20073;-65
2023/12/15 14:01:56;;;;;;;7.43;1.85;;;;;;;;;;4994715;28;20107;-66
2023/12/15 14:04:22;;;;;;;9.77;1.75;;;;;;;;;;4997171;28;20130;-64
2023/12/15 14:06:51;;;;;;;9.43;1.70;;;;;;;;;;4992030;28;20065;-65
2023/12/15 14:09:18;;;;;;;5.05;1.75;;;;;;;;;;4999029;28;20042;-65
2023/12/15 14:11:44;;;;;;;8.20;1.90;;;;;;;;;;5000488;28;20119;-65
2023/12/15 14:14:11;;;;;;;9.77;1.67;;;;;;;;;;5000038;28;20141;-65
2023/12/15 14:16:38;;;;;;;8.18;2.33;;;;;;;;;;4997300;28;20049;-67
2023/12/15 14:19:06;;;;;;;17.38;4.10;;;;;;;;;;4999861;28;20062;-66
2023/12/15 14:21:32;;;;;;;19.70;3.28;;;;;;;;;;4997846;28;20053;-65
2023/12/15 14:23:59;;;;;;;8.85;1.95;;;;;;;;;;4997963;28;20058;-65
2023/12/15 14:26:26;;;;;;;11.60;1.30;;;;;;;;;;4998439;28;20057;-65